sensor_id;sensor_type;location;lat;lon;timestamp;pressure;altitude;pressure_sealevel;temperature;humidity
48872;BME280;36154;51.674;7.824;2023-07-16T00:01:34;100142.59;;;24.12;47.09
48872;BME280;36154;51.674;7.824;2023-07-16T00:03:59;100142.59;;;24.12;47.65
48872;BME280;36154;51.674;7.824;2023-07-16T00:06:25;100143.44;;;24.13;47.08
48872;BME280;36154;51.674;7.824;2023-07-16T00:08:50;100143.50;;;24.11;47.76
48872;BME280;36154;51.674;7.824;2023-07-16T00:11:15;100146.19;;;24.10;47.20
48872;BME280;36154;51.674;7.824;2023-07-16T00:13:40;100142.75;;;24.09;47.64
48872;BME280;36154;51.674;7.824;2023-07-16T00:16:11;100136.09;;;24.04;48.01
48872;BME280;36154;51.674;7.824;2023-07-16T00:18:36;100147.44;;;24.03;47.59
48872;BME280;36154;51.674;7.824;2023-07-16T00:21:02;100151.88;;;24.00;48.35
48872;BME280;36154;51.674;7.824;2023-07-16T00:23:27;100155.53;;;23.96;48.36
48872;BME280;36154;51.674;7.824;2023-07-16T00:25:52;100160.91;;;23.93;48.58
48872;BME280;36154;51.674;7.824;2023-07-16T00:28:17;100155.84;;;23.90;48.37
48872;BME280;36154;51.674;7.824;2023-07-16T00:30:43;100159.53;;;23.86;48.76
48872;BME280;36154;51.674;7.824;2023-07-16T00:33:08;100167.63;;;23.80;48.82
48872;BME280;36154;51.674;7.824;2023-07-16T00:35:33;100172.22;;;23.75;49.20
48872;BME280;36154;51.674;7.824;2023-07-16T00:37:59;100167.81;;;23.77;48.94
48872;BME280;36154;51.674;7.824;2023-07-16T00:40:24;100171.31;;;23.76;49.21
48872;BME280;36154;51.674;7.824;2023-07-16T00:42:49;100181.72;;;23.76;49.73
48872;BME280;36154;51.674;7.824;2023-07-16T00:45:15;100177.28;;;23.78;49.23
48872;BME280;36154;51.674;7.824;2023-07-16T00:47:41;100180.56;;;23.81;49.58
48872;BME280;36154;51.674;7.824;2023-07-16T00:50:10;100178.91;;;23.80;49.41
48872;BME280;36154;51.674;7.824;2023-07-16T00:52:36;100181.59;;;23.79;50.01
48872;BME280;36154;51.674;7.824;2023-07-16T00:55:02;100177.28;;;23.78;50.15
48872;BME280;36154;51.674;7.824;2023-07-16T00:57:28;100172.16;;;23.76;50.03
48872;BME280;36154;51.674;7.824;2023-07-16T00:59:54;100172.38;;;23.72;50.35
48872;BME280;36154;51.674;7.824;2023-07-16T01:02:20;100176.22;;;23.65;50.50
48872;BME280;36154;51.674;7.824;2023-07-16T01:04:45;100189.34;;;23.61;50.54
48872;BME280;36154;51.674;7.824;2023-07-16T01:07:11;100178.97;;;23.61;50.75
48872;BME280;36154;51.674;7.824;2023-07-16T01:09:41;100181.47;;;23.63;50.45
48872;BME280;36154;51.674;7.824;2023-07-16T01:12:07;100190.28;;;23.60;50.71
48872;BME280;36154;51.674;7.824;2023-07-16T01:14:34;100182.75;;;23.54;50.98
48872;BME280;36154;51.674;7.824;2023-07-16T01:17:05;100176.72;;;23.54;51.23
48872;BME280;36154;51.674;7.824;2023-07-16T01:19:34;100178.53;;;23.52;51.22
48872;BME280;36154;51.674;7.824;2023-07-16T01:27:34;100181.91;;;23.54;50.82
48872;BME280;36154;51.674;7.824;2023-07-16T01:30:08;100188.84;;;23.53;51.06
48872;BME280;36154;51.674;7.824;2023-07-16T01:32:36;100185.44;;;23.53;51.36
48872;BME280;36154;51.674;7.824;2023-07-16T01:35:03;100177.69;;;23.51;51.25
48872;BME280;36154;51.674;7.824;2023-07-16T01:37:29;100193.16;;;23.54;51.18
48872;BME280;36154;51.674;7.824;2023-07-16T01:39:55;100181.69;;;23.58;50.99
48872;BME280;36154;51.674;7.824;2023-07-16T01:42:20;100180.03;;;23.57;51.36
48872;BME280;36154;51.674;7.824;2023-07-16T01:44:45;100179.28;;;23.55;51.09
48872;BME280;36154;51.674;7.824;2023-07-16T01:47:25;100172.34;;;23.54;51.31
48872;BME280;36154;51.674;7.824;2023-07-16T01:49:54;100187.94;;;23.54;51.15
48872;BME280;36154;51.674;7.824;2023-07-16T01:52:19;100187.09;;;23.55;51.08
48872;BME280;36154;51.674;7.824;2023-07-16T01:54:44;100185.34;;;23.54;51.26
48872;BME280;36154;51.674;7.824;2023-07-16T01:57:10;100196.03;;;23.48;51.52
48872;BME280;36154;51.674;7.824;2023-07-16T01:59:35;100197.94;;;23.44;51.39
48872;BME280;36154;51.674;7.824;2023-07-16T02:02:00;100195.28;;;23.46;51.45
48872;BME280;36154;51.674;7.824;2023-07-16T02:04:25;100198.72;;;23.47;51.30
48872;BME280;36154;51.674;7.824;2023-07-16T02:06:51;100200.69;;;23.41;51.29
48872;BME280;36154;51.674;7.824;2023-07-16T02:09:16;100202.47;;;23.41;51.25
48872;BME280;36154;51.674;7.824;2023-07-16T02:11:41;100204.16;;;23.42;51.69
48872;BME280;36154;51.674;7.824;2023-07-16T02:14:07;100208.50;;;23.41;51.47
48872;BME280;36154;51.674;7.824;2023-07-16T02:16:32;100207.66;;;23.41;51.65
48872;BME280;36154;51.674;7.824;2023-07-16T02:18:57;100219.75;;;23.42;51.07
48872;BME280;36154;51.674;7.824;2023-07-16T02:21:22;100232.69;;;23.43;51.24
48872;BME280;36154;51.674;7.824;2023-07-16T02:23:48;100230.84;;;23.45;51.48
48872;BME280;36154;51.674;7.824;2023-07-16T02:26:13;100234.28;;;23.46;51.41
48872;BME280;36154;51.674;7.824;2023-07-16T02:28:38;100233.38;;;23.47;50.95
48872;BME280;36154;51.674;7.824;2023-07-16T02:31:04;100231.53;;;23.49;51.08
48872;BME280;36154;51.674;7.824;2023-07-16T02:33:30;100235.84;;;23.50;51.16
48872;BME280;36154;51.674;7.824;2023-07-16T02:35:55;100240.09;;;23.51;50.69
48872;BME280;36154;51.674;7.824;2023-07-16T02:38:20;100236.75;;;23.49;50.95
48872;BME280;36154;51.674;7.824;2023-07-16T02:40:47;100240.25;;;23.48;50.37
48872;BME280;36154;51.674;7.824;2023-07-16T02:43:12;100242.09;;;23.46;50.37
48872;BME280;36154;51.674;7.824;2023-07-16T02:45:38;100236.13;;;23.44;50.37
48872;BME280;36154;51.674;7.824;2023-07-16T02:48:04;100231.34;;;23.35;50.31
48872;BME280;36154;51.674;7.824;2023-07-16T02:50:30;100251.38;;;23.33;50.11
48872;BME280;36154;51.674;7.824;2023-07-16T02:52:55;100246.19;;;23.33;50.38
48872;BME280;36154;51.674;7.824;2023-07-16T02:55:20;100253.06;;;23.34;50.18
48872;BME280;36154;51.674;7.824;2023-07-16T02:57:46;100244.50;;;23.32;50.55
48872;BME280;36154;51.674;7.824;2023-07-16T03:00:11;100246.31;;;23.30;50.22
48872;BME280;36154;51.674;7.824;2023-07-16T03:02:37;100248.00;;;23.31;50.27
48872;BME280;36154;51.674;7.824;2023-07-16T03:05:02;100247.25;;;23.29;49.94
48872;BME280;36154;51.674;7.824;2023-07-16T03:07:28;100244.78;;;23.25;50.20
48872;BME280;36154;51.674;7.824;2023-07-16T03:09:53;100256.09;;;23.24;50.24
48872;BME280;36154;51.674;7.824;2023-07-16T03:12:18;100254.34;;;23.25;50.12
48872;BME280;36154;51.674;7.824;2023-07-16T03:14:44;100254.34;;;23.25;50.18
48872;BME280;36154;51.674;7.824;2023-07-16T03:17:09;100269.06;;;23.24;50.31
48872;BME280;36154;51.674;7.824;2023-07-16T03:19:34;100265.72;;;23.22;50.65
48872;BME280;36154;51.674;7.824;2023-07-16T03:22:00;100271.69;;;23.24;50.61
48872;BME280;36154;51.674;7.824;2023-07-16T03:24:27;100272.59;;;23.23;50.65
48872;BME280;36154;51.674;7.824;2023-07-16T03:26:53;100274.28;;;23.24;51.04
48872;BME280;36154;51.674;7.824;2023-07-16T03:29:18;100280.34;;;23.25;50.92
48872;BME280;36154;51.674;7.824;2023-07-16T03:31:43;100284.69;;;23.24;50.52
48872;BME280;36154;51.674;7.824;2023-07-16T03:34:09;100282.06;;;23.24;50.91
48872;BME280;36154;51.674;7.824;2023-07-16T03:36:34;100274.28;;;23.24;50.98
48872;BME280;36154;51.674;7.824;2023-07-16T03:38:59;100274.41;;;23.21;50.88
48872;BME280;36154;51.674;7.824;2023-07-16T03:41:25;100283.13;;;23.20;51.01
48872;BME280;36154;51.674;7.824;2023-07-16T03:43:50;100286.63;;;23.19;51.04
48872;BME280;36154;51.674;7.824;2023-07-16T03:46:15;100297.09;;;23.18;50.77
48872;BME280;36154;51.674;7.824;2023-07-16T03:48:40;100293.66;;;23.17;50.91
48872;BME280;36154;51.674;7.824;2023-07-16T03:51:06;100293.66;;;23.17;50.79
48872;BME280;36154;51.674;7.824;2023-07-16T03:53:31;100299.00;;;23.14;50.95
48872;BME280;36154;51.674;7.824;2023-07-16T03:55:56;100304.34;;;23.11;51.26
48872;BME280;36154;51.674;7.824;2023-07-16T03:58:21;100300.97;;;23.09;51.20
48872;BME280;36154;51.674;7.824;2023-07-16T04:00:48;100300.06;;;23.10;50.93
48872;BME280;36154;51.674;7.824;2023-07-16T04:03:13;100304.34;;;23.11;50.71
48872;BME280;36154;51.674;7.824;2023-07-16T04:05:38;100311.28;;;23.11;50.86
48872;BME280;36154;51.674;7.824;2023-07-16T04:08:04;100312.19;;;23.10;51.01
48872;BME280;36154;51.674;7.824;2023-07-16T04:10:29;100311.38;;;23.09;51.08
48872;BME280;36154;51.674;7.824;2023-07-16T04:12:54;100309.59;;;23.10;51.21
48872;BME280;36154;51.674;7.824;2023-07-16T04:15:19;100313.19;;;23.07;50.83
48872;BME280;36154;51.674;7.824;2023-07-16T04:17:45;100308.97;;;23.04;50.74
48872;BME280;36154;51.674;7.824;2023-07-16T04:20:12;100317.75;;;23.02;50.93
48872;BME280;36154;51.674;7.824;2023-07-16T04:22:38;100328.22;;;23.00;50.97
48872;BME280;36154;51.674;7.824;2023-07-16T04:25:04;100331.66;;;23.01;50.76
48872;BME280;36154;51.674;7.824;2023-07-16T04:27:29;100340.28;;;23.01;50.38
48872;BME280;36154;51.674;7.824;2023-07-16T04:29:54;100334.19;;;23.02;50.30
48872;BME280;36154;51.674;7.824;2023-07-16T04:32:20;100330.81;;;23.00;50.09
48872;BME280;36154;51.674;7.824;2023-07-16T04:34:45;100337.84;;;22.98;49.91
48872;BME280;36154;51.674;7.824;2023-07-16T04:37:10;100331.78;;;22.98;49.64
48872;BME280;36154;51.674;7.824;2023-07-16T04:39:36;100347.44;;;22.96;49.25
48872;BME280;36154;51.674;7.824;2023-07-16T04:42:01;100346.72;;;22.93;49.26
48872;BME280;36154;51.674;7.824;2023-07-16T04:44:26;100352.69;;;22.95;48.44
48872;BME280;36154;51.674;7.824;2023-07-16T04:46:51;100347.59;;;22.93;48.09
48872;BME280;36154;51.674;7.824;2023-07-16T04:49:17;100353.75;;;22.91;47.52
48872;BME280;36154;51.674;7.824;2023-07-16T04:51:42;100359.19;;;22.84;47.20
48872;BME280;36154;51.674;7.824;2023-07-16T04:54:07;100357.53;;;22.83;47.11
48872;BME280;36154;51.674;7.824;2023-07-16T04:56:33;100366.31;;;22.79;47.04
48872;BME280;36154;51.674;7.824;2023-07-16T04:58:58;100363.78;;;22.78;46.77
48872;BME280;36154;51.674;7.824;2023-07-16T05:01:23;100371.63;;;22.76;46.41
48872;BME280;36154;51.674;7.824;2023-07-16T05:03:48;100381.97;;;22.78;46.63
48872;BME280;36154;51.674;7.824;2023-07-16T05:06:14;100376.69;;;22.79;46.46
48872;BME280;36154;51.674;7.824;2023-07-16T05:08:39;100374.88;;;22.81;46.09
48872;BME280;36154;51.674;7.824;2023-07-16T05:11:04;100375.78;;;22.82;45.75
48872;BME280;36154;51.674;7.824;2023-07-16T05:13:30;100398.34;;;22.80;45.37
48872;BME280;36154;51.674;7.824;2023-07-16T05:15:55;100389.75;;;22.78;45.35
48872;BME280;36154;51.674;7.824;2023-07-16T05:18:20;100394.00;;;22.80;45.17
48872;BME280;36154;51.674;7.824;2023-07-16T05:20:47;100398.22;;;22.83;45.34
48872;BME280;36154;51.674;7.824;2023-07-16T05:23:13;100398.97;;;22.86;45.44
48872;BME280;36154;51.674;7.824;2023-07-16T05:25:39;100401.63;;;22.85;45.05
48872;BME280;36154;51.674;7.824;2023-07-16T05:28:04;100397.38;;;22.82;44.88
48872;BME280;36154;51.674;7.824;2023-07-16T05:30:32;100409.56;;;22.80;44.73
48872;BME280;36154;51.674;7.824;2023-07-16T05:32:57;100417.44;;;22.79;44.78
48872;BME280;36154;51.674;7.824;2023-07-16T05:35:22;100413.34;;;22.73;44.48
48872;BME280;36154;51.674;7.824;2023-07-16T05:37:47;100420.47;;;22.68;44.52
48872;BME280;36154;51.674;7.824;2023-07-16T05:40:13;100421.44;;;22.65;44.48
48872;BME280;36154;51.674;7.824;2023-07-16T05:42:38;100420.47;;;22.68;44.91
48872;BME280;36154;51.674;7.824;2023-07-16T05:45:04;100431.59;;;22.71;44.80
48872;BME280;36154;51.674;7.824;2023-07-16T05:47:29;100428.94;;;22.73;44.60
48872;BME280;36154;51.674;7.824;2023-07-16T05:49:55;100434.13;;;22.73;44.22
48872;BME280;36154;51.674;7.824;2023-07-16T05:52:20;100417.88;;;22.68;44.19
48872;BME280;36154;51.674;7.824;2023-07-16T05:54:45;100434.13;;;22.73;44.15
48872;BME280;36154;51.674;7.824;2023-07-16T05:57:11;100437.50;;;22.75;44.18
48872;BME280;36154;51.674;7.824;2023-07-16T05:59:36;100437.50;;;22.75;44.01
48872;BME280;36154;51.674;7.824;2023-07-16T06:02:03;100435.78;;;22.74;43.61
48872;BME280;36154;51.674;7.824;2023-07-16T06:04:28;100441.97;;;22.71;43.71
48872;BME280;36154;51.674;7.824;2023-07-16T06:06:54;100443.75;;;22.69;43.56
48872;BME280;36154;51.674;7.824;2023-07-16T06:09:19;100448.13;;;22.69;43.86
48872;BME280;36154;51.674;7.824;2023-07-16T06:11:48;100449.63;;;22.75;43.32
48872;BME280;36154;51.674;7.824;2023-07-16T06:14:13;100440.16;;;22.74;43.49
48872;BME280;36154;51.674;7.824;2023-07-16T06:16:39;100447.00;;;22.75;43.67
48872;BME280;36154;51.674;7.824;2023-07-16T06:19:04;100452.03;;;22.79;43.42
48872;BME280;36154;51.674;7.824;2023-07-16T06:21:30;100446.06;;;22.77;43.21
48872;BME280;36154;51.674;7.824;2023-07-16T06:23:55;100459.03;;;22.77;43.38
48872;BME280;36154;51.674;7.824;2023-07-16T06:26:20;100440.03;;;22.77;43.17
48872;BME280;36154;51.674;7.824;2023-07-16T06:28:45;100453.97;;;22.74;43.47
48872;BME280;36154;51.674;7.824;2023-07-16T06:31:14;100458.38;;;22.72;43.43
48872;BME280;36154;51.674;7.824;2023-07-16T06:33:39;100461.88;;;22.71;43.26
48872;BME280;36154;51.674;7.824;2023-07-16T06:36:07;100455.13;;;22.67;43.10
48872;BME280;36154;51.674;7.824;2023-07-16T06:38:32;100462.28;;;22.62;43.34
48872;BME280;36154;51.674;7.824;2023-07-16T06:40:58;100463.28;;;22.58;43.16
48872;BME280;36154;51.674;7.824;2023-07-16T06:43:23;100467.75;;;22.54;43.15
48872;BME280;36154;51.674;7.824;2023-07-16T06:45:49;100471.22;;;22.55;43.20
48872;BME280;36154;51.674;7.824;2023-07-16T06:48:16;100469.28;;;22.60;43.08
48872;BME280;36154;51.674;7.824;2023-07-16T06:50:41;100473.38;;;22.65;43.32
48872;BME280;36154;51.674;7.824;2023-07-16T06:53:06;100468.06;;;22.68;43.05
48872;BME280;36154;51.674;7.824;2023-07-16T06:55:32;100477.47;;;22.71;42.24
48872;BME280;36154;51.674;7.824;2023-07-16T06:57:57;100478.41;;;22.70;42.43
48872;BME280;36154;51.674;7.824;2023-07-16T07:00:22;100487.84;;;22.71;42.33
48872;BME280;36154;51.674;7.824;2023-07-16T07:02:48;100492.94;;;22.74;42.14
48872;BME280;36154;51.674;7.824;2023-07-16T07:05:13;100485.91;;;22.76;42.00
48872;BME280;36154;51.674;7.824;2023-07-16T07:07:38;100497.16;;;22.77;41.96
48872;BME280;36154;51.674;7.824;2023-07-16T07:10:04;100482.66;;;22.71;41.66
48872;BME280;36154;51.674;7.824;2023-07-16T07:12:29;100489.63;;;22.70;41.60
48872;BME280;36154;51.674;7.824;2023-07-16T07:14:55;100481.75;;;22.72;41.80
48872;BME280;36154;51.674;7.824;2023-07-16T07:17:20;100493.75;;;22.75;41.70
48872;BME280;36154;51.674;7.824;2023-07-16T07:19:46;100474.63;;;22.77;41.76
48872;BME280;36154;51.674;7.824;2023-07-16T07:22:11;100483.97;;;22.81;41.85
48872;BME280;36154;51.674;7.824;2023-07-16T07:24:36;100495.19;;;22.83;41.75
48872;BME280;36154;51.674;7.824;2023-07-16T07:27:02;100494.38;;;22.81;41.37
48872;BME280;36154;51.674;7.824;2023-07-16T07:29:27;100486.56;;;22.81;41.52
48872;BME280;36154;51.674;7.824;2023-07-16T07:31:53;100494.28;;;22.84;41.28
48872;BME280;36154;51.674;7.824;2023-07-16T07:34:18;100500.19;;;22.88;41.42
48872;BME280;36154;51.674;7.824;2023-07-16T07:36:43;100474.28;;;22.86;41.14
48872;BME280;36154;51.674;7.824;2023-07-16T07:39:09;100501.31;;;22.81;40.99
48872;BME280;36154;51.674;7.824;2023-07-16T07:41:34;100498.00;;;22.77;40.83
48872;BME280;36154;51.674;7.824;2023-07-16T07:44:00;100484.06;;;22.80;41.17
48872;BME280;36154;51.674;7.824;2023-07-16T07:46:25;100491.75;;;22.81;41.17
48872;BME280;36154;51.674;7.824;2023-07-16T07:48:50;100487.41;;;22.83;41.09
48872;BME280;36154;51.674;7.824;2023-07-16T07:51:16;100498.50;;;22.87;40.90
48872;BME280;36154;51.674;7.824;2023-07-16T07:53:41;100510.50;;;22.89;40.72
48872;BME280;36154;51.674;7.824;2023-07-16T07:56:07;100488.19;;;22.85;40.86
48872;BME280;36154;51.674;7.824;2023-07-16T07:58:32;100497.53;;;22.89;40.83
48872;BME280;36154;51.674;7.824;2023-07-16T08:01:04;100497.69;;;22.86;40.72
48872;BME280;36154;51.674;7.824;2023-07-16T08:03:29;100495.06;;;22.86;40.82
48872;BME280;36154;51.674;7.824;2023-07-16T08:05:54;100507.97;;;22.88;40.84
48872;BME280;36154;51.674;7.824;2023-07-16T08:08:20;100510.50;;;22.89;40.68
48872;BME280;36154;51.674;7.824;2023-07-16T08:10:45;100504.53;;;22.87;40.82
48872;BME280;36154;51.674;7.824;2023-07-16T08:13:11;100507.13;;;22.87;40.46
48872;BME280;36154;51.674;7.824;2023-07-16T08:15:36;100507.91;;;22.89;40.26
48872;BME280;36154;51.674;7.824;2023-07-16T08:18:01;100497.41;;;22.93;40.38
48872;BME280;36154;51.674;7.824;2023-07-16T08:20:27;100504.31;;;22.94;40.08
48872;BME280;36154;51.674;7.824;2023-07-16T08:22:52;100509.56;;;22.92;40.14
48872;BME280;36154;51.674;7.824;2023-07-16T08:25:17;100515.41;;;22.97;39.90
48872;BME280;36154;51.674;7.824;2023-07-16T08:27:46;100508.44;;;22.98;39.84
48872;BME280;36154;51.674;7.824;2023-07-16T08:30:11;100513.66;;;22.98;39.95
48872;BME280;36154;51.674;7.824;2023-07-16T08:32:36;100518.84;;;22.98;39.97
48872;BME280;36154;51.674;7.824;2023-07-16T08:35:02;100518.06;;;22.96;39.76
48872;BME280;36154;51.674;7.824;2023-07-16T08:37:27;100519.78;;;22.97;39.76
48872;BME280;36154;51.674;7.824;2023-07-16T08:39:53;100521.50;;;22.96;39.42
48872;BME280;36154;51.674;7.824;2023-07-16T08:42:21;100521.56;;;22.95;38.96
48872;BME280;36154;51.674;7.824;2023-07-16T08:44:48;100516.53;;;22.92;39.21
48872;BME280;36154;51.674;7.824;2023-07-16T08:47:14;100524.16;;;22.95;39.08
48872;BME280;36154;51.674;7.824;2023-07-16T08:49:40;100513.59;;;22.99;39.23
48872;BME280;36154;51.674;7.824;2023-07-16T08:52:06;100513.47;;;23.02;38.67
48872;BME280;36154;51.674;7.824;2023-07-16T08:54:32;100518.59;;;23.04;38.63
48872;BME280;36154;51.674;7.824;2023-07-16T08:56:58;100527.94;;;23.08;38.68
48872;BME280;36154;51.674;7.824;2023-07-16T08:59:26;100515.75;;;23.10;38.56
48872;BME280;36154;51.674;7.824;2023-07-16T09:01:51;100527.81;;;23.11;38.09
48872;BME280;36154;51.674;7.824;2023-07-16T09:04:17;100526.81;;;23.15;38.34
48872;BME280;36154;51.674;7.824;2023-07-16T09:06:42;100524.22;;;23.15;38.34
48872;BME280;36154;51.674;7.824;2023-07-16T09:09:08;100532.00;;;23.15;38.39
48872;BME280;36154;51.674;7.824;2023-07-16T09:11:34;100518.88;;;23.18;38.47
48872;BME280;36154;51.674;7.824;2023-07-16T09:14:01;100537.72;;;23.23;38.44
48872;BME280;36154;51.674;7.824;2023-07-16T09:16:32;100537.56;;;23.26;37.90
48872;BME280;36154;51.674;7.824;2023-07-16T09:19:05;100524.41;;;23.31;37.45
48872;BME280;36154;51.674;7.824;2023-07-16T09:21:31;100545.13;;;23.33;37.43
48872;BME280;36154;51.674;7.824;2023-07-16T09:24:00;100533.84;;;23.34;37.30
48872;BME280;36154;51.674;7.824;2023-07-16T09:26:25;100532.84;;;23.36;37.42
48872;BME280;36154;51.674;7.824;2023-07-16T09:28:50;100541.50;;;23.37;37.35
48872;BME280;36154;51.674;7.824;2023-07-16T09:31:16;100526.69;;;23.39;37.26
48872;BME280;36154;51.674;7.824;2023-07-16T09:33:41;100541.22;;;23.43;37.44
48872;BME280;36154;51.674;7.824;2023-07-16T09:36:06;100542.09;;;23.43;37.58
48872;BME280;36154;51.674;7.824;2023-07-16T09:38:32;100535.91;;;23.46;37.39
48872;BME280;36154;51.674;7.824;2023-07-16T09:40:58;100547.19;;;23.45;37.37
48872;BME280;36154;51.674;7.824;2023-07-16T09:43:24;100545.41;;;23.47;37.22
48872;BME280;36154;51.674;7.824;2023-07-16T09:45:49;100553.97;;;23.49;37.01
48872;BME280;36154;51.674;7.824;2023-07-16T09:48:15;100560.72;;;23.53;37.32
48872;BME280;36154;51.674;7.824;2023-07-16T09:50:46;100542.34;;;23.58;37.55
48872;BME280;36154;51.674;7.824;2023-07-16T09:53:15;100554.41;;;23.60;37.53
48872;BME280;36154;51.674;7.824;2023-07-16T09:55:41;100549.84;;;23.66;37.66
48872;BME280;36154;51.674;7.824;2023-07-16T09:58:08;100542.81;;;23.68;37.61
48872;BME280;36154;51.674;7.824;2023-07-16T10:00:35;100547.75;;;23.74;37.61
48872;BME280;36154;51.674;7.824;2023-07-16T10:03:02;100559.69;;;23.78;37.71
48872;BME280;36154;51.674;7.824;2023-07-16T10:05:28;100550.88;;;23.82;38.27
48872;BME280;36154;51.674;7.824;2023-07-16T10:07:58;100545.50;;;23.85;37.98
48872;BME280;36154;51.674;7.824;2023-07-16T10:10:39;100547.91;;;23.90;38.25
48872;BME280;36154;51.674;7.824;2023-07-16T10:13:06;100552.16;;;23.92;38.28
48872;BME280;36154;51.674;7.824;2023-07-16T10:15:32;100557.22;;;23.95;38.62
48872;BME280;36154;51.674;7.824;2023-07-16T10:17:57;100562.25;;;23.98;38.69
48872;BME280;36154;51.674;7.824;2023-07-16T10:22:55;100549.88;;;24.04;39.18
48872;BME280;36154;51.674;7.824;2023-07-16T10:27:47;100563.56;;;24.09;39.69
48872;BME280;36154;51.674;7.824;2023-07-16T10:30:14;100560.88;;;24.10;39.57
48872;BME280;36154;51.674;7.824;2023-07-16T10:32:40;100563.41;;;24.12;39.67
48872;BME280;36154;51.674;7.824;2023-07-16T10:35:07;100566.81;;;24.14;39.41
48872;BME280;36154;51.674;7.824;2023-07-16T10:37:36;100568.47;;;24.15;39.70
48872;BME280;36154;51.674;7.824;2023-07-16T10:40:03;100566.63;;;24.17;39.50
48872;BME280;36154;51.674;7.824;2023-07-16T10:42:29;100566.56;;;24.18;39.58
48872;BME280;36154;51.674;7.824;2023-07-16T10:44:57;100567.38;;;24.21;39.77
48872;BME280;36154;51.674;7.824;2023-07-16T10:47:28;100568.13;;;24.23;39.58
48872;BME280;36154;51.674;7.824;2023-07-16T10:49:54;100575.00;;;24.24;39.50
48872;BME280;36154;51.674;7.824;2023-07-16T10:52:23;100574.94;;;24.25;39.82
48872;BME280;36154;51.674;7.824;2023-07-16T10:54:52;100572.31;;;24.27;39.73
48872;BME280;36154;51.674;7.824;2023-07-16T10:57:20;100578.38;;;24.27;39.94
48872;BME280;36154;51.674;7.824;2023-07-16T10:59:46;100586.97;;;24.29;40.15
48872;BME280;36154;51.674;7.824;2023-07-16T11:02:14;100581.69;;;24.31;39.75
48872;BME280;36154;51.674;7.824;2023-07-16T11:04:40;100586.81;;;24.32;40.00
48872;BME280;36154;51.674;7.824;2023-07-16T11:07:09;100582.47;;;24.33;40.28
48872;BME280;36154;51.674;7.824;2023-07-16T11:09:44;100576.41;;;24.32;39.93
48872;BME280;36154;51.674;7.824;2023-07-16T11:12:12;100591.03;;;24.35;39.98
48872;BME280;36154;51.674;7.824;2023-07-16T11:14:38;100578.94;;;24.34;40.10
48872;BME280;36154;51.674;7.824;2023-07-16T11:17:05;100580.56;;;24.36;39.86
48872;BME280;36154;51.674;7.824;2023-07-16T11:19:31;100586.59;;;24.37;40.12
48872;BME280;36154;51.674;7.824;2023-07-16T11:21:57;100583.03;;;24.40;40.04
48872;BME280;36154;51.674;7.824;2023-07-16T11:24:23;100569.16;;;24.39;40.06
48872;BME280;36154;51.674;7.824;2023-07-16T11:26:56;100584.72;;;24.41;40.05
48872;BME280;36154;51.674;7.824;2023-07-16T11:29:24;100585.63;;;24.40;40.17
48872;BME280;36154;51.674;7.824;2023-07-16T11:31:51;100592.44;;;24.42;39.87
48872;BME280;36154;51.674;7.824;2023-07-16T11:34:16;100595.03;;;24.42;40.10
48872;BME280;36154;51.674;7.824;2023-07-16T11:36:42;100597.56;;;24.44;40.10
48872;BME280;36154;51.674;7.824;2023-07-16T11:39:07;100596.66;;;24.45;40.11
48872;BME280;36154;51.674;7.824;2023-07-16T11:41:35;100599.28;;;24.45;40.14
48872;BME280;36154;51.674;7.824;2023-07-16T11:44:01;100605.31;;;24.45;40.07
48872;BME280;36154;51.674;7.824;2023-07-16T11:46:31;100595.78;;;24.46;40.45
48872;BME280;36154;51.674;7.824;2023-07-16T11:48:56;100605.25;;;24.47;40.05
48872;BME280;36154;51.674;7.824;2023-07-16T11:51:21;100617.38;;;24.48;40.21
48872;BME280;36154;51.674;7.824;2023-07-16T11:53:47;100611.41;;;24.46;40.37
48872;BME280;36154;51.674;7.824;2023-07-16T11:56:12;100613.00;;;24.48;40.44
48872;BME280;36154;51.674;7.824;2023-07-16T11:58:40;100608.63;;;24.49;40.55
48872;BME280;36154;51.674;7.824;2023-07-16T12:01:05;100621.66;;;24.49;40.25
48872;BME280;36154;51.674;7.824;2023-07-16T12:03:30;100613.84;;;24.49;40.61
48872;BME280;36154;51.674;7.824;2023-07-16T12:05:55;100617.22;;;24.51;40.35
48872;BME280;36154;51.674;7.824;2023-07-16T12:08:21;100610.31;;;24.50;38.83
48872;BME280;36154;51.674;7.824;2023-07-16T12:10:46;100620.88;;;24.47;37.97
48872;BME280;36154;51.674;7.824;2023-07-16T12:13:12;100611.59;;;24.41;36.86
48872;BME280;36154;51.674;7.824;2023-07-16T12:15:37;100605.69;;;24.38;36.69
48872;BME280;36154;51.674;7.824;2023-07-16T12:18:02;100617.06;;;24.35;36.83
48872;BME280;36154;51.674;7.824;2023-07-16T12:20:28;100613.69;;;24.33;36.90
48872;BME280;36154;51.674;7.824;2023-07-16T12:22:53;100613.13;;;24.26;36.79
48872;BME280;36154;51.674;7.824;2023-07-16T12:25:19;100614.66;;;24.30;37.13
48872;BME280;36154;51.674;7.824;2023-07-16T12:27:45;100610.41;;;24.29;36.95
48872;BME280;36154;51.674;7.824;2023-07-16T12:30:10;100615.59;;;24.29;36.74
48872;BME280;36154;51.674;7.824;2023-07-16T12:32:36;100613.84;;;24.30;36.58
48872;BME280;36154;51.674;7.824;2023-07-16T12:35:01;100631.16;;;24.31;36.24
48872;BME280;36154;51.674;7.824;2023-07-16T12:37:26;100620.03;;;24.27;36.29
48872;BME280;36154;51.674;7.824;2023-07-16T12:39:52;100620.97;;;24.25;36.03
48872;BME280;36154;51.674;7.824;2023-07-16T12:42:17;100609.03;;;24.21;36.37
48872;BME280;36154;51.674;7.824;2023-07-16T12:44:42;100615.34;;;24.15;36.27
48872;BME280;36154;51.674;7.824;2023-07-16T12:47:08;100621.19;;;24.20;36.69
48872;BME280;36154;51.674;7.824;2023-07-16T12:49:34;100614.31;;;24.19;36.70
48872;BME280;36154;51.674;7.824;2023-07-16T12:51:59;100630.75;;;24.19;36.73
48872;BME280;36154;51.674;7.824;2023-07-16T12:54:24;100621.94;;;24.22;36.78